sensor_id;sensor_type;location;lat;lon;timestamp;temperature;humidity
4985;DHT22;2509;49.902;8.600;2023-10-09T00:01:28;15.20;99.90
4985;DHT22;2509;49.902;8.600;2023-10-09T00:04:33;15.20;99.90
4985;DHT22;2509;49.902;8.600;2023-10-09T00:07:36;15.10;99.90
4985;DHT22;2509;49.902;8.600;2023-10-09T00:10:38;15.10;99.90
4985;DHT22;2509;49.902;8.600;2023-10-09T00:13:49;15.10;99.90
4985;DHT22;2509;49.902;8.600;2023-10-09T00:16:52;15.10;99.90
4985;DHT22;2509;49.902;8.600;2023-10-09T00:20:08;15.20;99.90
4985;DHT22;2509;49.902;8.600;2023-10-09T00:23:18;15.20;99.90
4985;DHT22;2509;49.902;8.600;2023-10-09T00:26:19;15.10;99.90
4985;DHT22;2509;49.902;8.600;2023-10-09T00:29:22;15.10;99.90
4985;DHT22;2509;49.902;8.600;2023-10-09T00:32:24;15.10;99.90
4985;DHT22;2509;49.902;8.600;2023-10-09T00:35:28;15.10;99.90
4985;DHT22;2509;49.902;8.600;2023-10-09T00:38:47;15.10;99.90
4985;DHT22;2509;49.902;8.600;2023-10-09T00:41:54;15.10;99.90
4985;DHT22;2509;49.902;8.600;2023-10-09T00:44:59;15.00;99.90
4985;DHT22;2509;49.902;8.600;2023-10-09T00:48:05;15.00;99.90
4985;DHT22;2509;49.902;8.600;2023-10-09T00:51:11;15.00;99.90
4985;DHT22;2509;49.902;8.600;2023-10-09T00:54:18;15.00;99.90
4985;DHT22;2509;49.902;8.600;2023-10-09T00:57:29;15.10;99.90
4985;DHT22;2509;49.902;8.600;2023-10-09T01:00:33;15.10;99.90
4985;DHT22;2509;49.902;8.600;2023-10-09T01:03:46;15.10;99.90
4985;DHT22;2509;49.902;8.600;2023-10-09T01:06:53;15.10;99.90
4985;DHT22;2509;49.902;8.600;2023-10-09T01:10:08;15.00;99.90
4985;DHT22;2509;49.902;8.600;2023-10-09T01:13:12;14.90;99.90
4985;DHT22;2509;49.902;8.600;2023-10-09T01:16:14;14.90;99.90
4985;DHT22;2509;49.902;8.600;2023-10-09T01:19:17;14.80;99.90
4985;DHT22;2509;49.902;8.600;2023-10-09T01:22:34;14.80;99.90
4985;DHT22;2509;49.902;8.600;2023-10-09T01:25:37;14.80;99.90
4985;DHT22;2509;49.902;8.600;2023-10-09T01:28:44;14.80;99.90
4985;DHT22;2509;49.902;8.600;2023-10-09T01:31:47;14.80;99.90
4985;DHT22;2509;49.902;8.600;2023-10-09T01:34:55;14.80;99.90
4985;DHT22;2509;49.902;8.600;2023-10-09T01:37:58;14.80;99.90
4985;DHT22;2509;49.902;8.600;2023-10-09T01:41:01;14.90;99.90
4985;DHT22;2509;49.902;8.600;2023-10-09T01:44:08;14.90;99.90
4985;DHT22;2509;49.902;8.600;2023-10-09T01:47:13;14.90;99.90
4985;DHT22;2509;49.902;8.600;2023-10-09T01:50:19;14.90;99.90
4985;DHT22;2509;49.902;8.600;2023-10-09T01:53:22;14.90;99.90
4985;DHT22;2509;49.902;8.600;2023-10-09T01:56:30;14.90;99.90
4985;DHT22;2509;49.902;8.600;2023-10-09T01:59:37;14.90;99.90
4985;DHT22;2509;49.902;8.600;2023-10-09T02:02:44;14.90;99.90
4985;DHT22;2509;49.902;8.600;2023-10-09T02:05:46;14.90;99.90
4985;DHT22;2509;49.902;8.600;2023-10-09T02:08:52;14.90;99.90
4985;DHT22;2509;49.902;8.600;2023-10-09T02:11:55;14.90;99.90
4985;DHT22;2509;49.902;8.600;2023-10-09T02:14:57;14.90;99.90
4985;DHT22;2509;49.902;8.600;2023-10-09T02:18:04;15.00;99.90
4985;DHT22;2509;49.902;8.600;2023-10-09T02:21:17;15.10;99.90
4985;DHT22;2509;49.902;8.600;2023-10-09T02:24:28;15.10;99.90
4985;DHT22;2509;49.902;8.600;2023-10-09T02:27:49;15.10;99.90
4985;DHT22;2509;49.902;8.600;2023-10-09T02:30:54;15.10;99.90
4985;DHT22;2509;49.902;8.600;2023-10-09T02:34:01;15.10;99.90
4985;DHT22;2509;49.902;8.600;2023-10-09T02:37:05;15.00;99.90
4985;DHT22;2509;49.902;8.600;2023-10-09T02:40:11;15.00;99.90
4985;DHT22;2509;49.902;8.600;2023-10-09T02:43:24;15.00;99.90
4985;DHT22;2509;49.902;8.600;2023-10-09T02:46:27;15.00;99.90
4985;DHT22;2509;49.902;8.600;2023-10-09T02:49:31;15.00;99.90
4985;DHT22;2509;49.902;8.600;2023-10-09T02:52:34;15.00;99.90
4985;DHT22;2509;49.902;8.600;2023-10-09T02:55:43;14.90;99.90
4985;DHT22;2509;49.902;8.600;2023-10-09T02:58:55;14.90;99.90
4985;DHT22;2509;49.902;8.600;2023-10-09T03:02:06;14.90;99.90
4985;DHT22;2509;49.902;8.600;2023-10-09T03:05:08;14.90;99.90
4985;DHT22;2509;49.902;8.600;2023-10-09T03:08:12;14.90;99.90
4985;DHT22;2509;49.902;8.600;2023-10-09T03:11:14;14.80;99.90
4985;DHT22;2509;49.902;8.600;2023-10-09T03:14:17;14.80;99.90
4985;DHT22;2509;49.902;8.600;2023-10-09T03:17:21;14.90;99.90
4985;DHT22;2509;49.902;8.600;2023-10-09T03:20:23;14.90;99.90
4985;DHT22;2509;49.902;8.600;2023-10-09T03:23:25;14.90;99.90
4985;DHT22;2509;49.902;8.600;2023-10-09T03:26:26;14.90;99.90
4985;DHT22;2509;49.902;8.600;2023-10-09T03:29:29;14.90;99.90
4985;DHT22;2509;49.902;8.600;2023-10-09T03:32:31;14.90;99.90
4985;DHT22;2509;49.902;8.600;2023-10-09T03:35:34;14.90;99.90
4985;DHT22;2509;49.902;8.600;2023-10-09T03:38:37;14.90;99.90
4985;DHT22;2509;49.902;8.600;2023-10-09T03:41:39;14.90;99.90
4985;DHT22;2509;49.902;8.600;2023-10-09T03:44:43;14.90;99.90
4985;DHT22;2509;49.902;8.600;2023-10-09T03:47:53;15.00;99.90
4985;DHT22;2509;49.902;8.600;2023-10-09T03:51:03;15.00;99.90
4985;DHT22;2509;49.902;8.600;2023-10-09T03:54:11;15.00;99.90
4985;DHT22;2509;49.902;8.600;2023-10-09T03:57:14;15.00;99.90
4985;DHT22;2509;49.902;8.600;2023-10-09T04:00:20;15.00;99.90
4985;DHT22;2509;49.902;8.600;2023-10-09T04:03:29;15.00;99.90
4985;DHT22;2509;49.902;8.600;2023-10-09T04:06:31;15.00;99.90
4985;DHT22;2509;49.902;8.600;2023-10-09T04:09:33;15.00;99.90
4985;DHT22;2509;49.902;8.600;2023-10-09T04:12:40;15.00;99.90
4985;DHT22;2509;49.902;8.600;2023-10-09T04:15:43;15.10;99.90
4985;DHT22;2509;49.902;8.600;2023-10-09T04:18:45;15.10;99.90
4985;DHT22;2509;49.902;8.600;2023-10-09T04:21:48;15.20;99.90
4985;DHT22;2509;49.902;8.600;2023-10-09T04:24:49;15.20;99.90
4985;DHT22;2509;49.902;8.600;2023-10-09T04:27:52;15.20;99.90
4985;DHT22;2509;49.902;8.600;2023-10-09T04:31:01;15.30;99.90
4985;DHT22;2509;49.902;8.600;2023-10-09T04:34:06;15.30;99.90
4985;DHT22;2509;49.902;8.600;2023-10-09T04:37:23;15.40;99.90
4985;DHT22;2509;49.902;8.600;2023-10-09T04:40:37;15.40;99.90
4985;DHT22;2509;49.902;8.600;2023-10-09T04:43:59;15.40;99.90
4985;DHT22;2509;49.902;8.600;2023-10-09T04:47:20;15.40;99.90
4985;DHT22;2509;49.902;8.600;2023-10-09T04:50:26;15.40;99.90
4985;DHT22;2509;49.902;8.600;2023-10-09T04:53:56;15.40;99.90
4985;DHT22;2509;49.902;8.600;2023-10-09T04:57:13;15.50;99.90
4985;DHT22;2509;49.902;8.600;2023-10-09T05:00:18;15.50;99.90
4985;DHT22;2509;49.902;8.600;2023-10-09T05:03:45;15.50;99.90
4985;DHT22;2509;49.902;8.600;2023-10-09T05:06:52;15.50;99.90
4985;DHT22;2509;49.902;8.600;2023-10-09T05:09:57;15.50;99.90
4985;DHT22;2509;49.902;8.600;2023-10-09T05:13:15;15.50;99.90
4985;DHT22;2509;49.902;8.600;2023-10-09T05:16:28;15.50;99.90
4985;DHT22;2509;49.902;8.600;2023-10-09T05:19:31;15.60;99.90
4985;DHT22;2509;49.902;8.600;2023-10-09T05:22:43;15.60;99.90
4985;DHT22;2509;49.902;8.600;2023-10-09T05:25:59;15.60;99.90
4985;DHT22;2509;49.902;8.600;2023-10-09T05:29:23;15.60;99.90
4985;DHT22;2509;49.902;8.600;2023-10-09T05:32:35;15.60;99.90
4985;DHT22;2509;49.902;8.600;2023-10-09T05:35:50;15.70;99.90
4985;DHT22;2509;49.902;8.600;2023-10-09T05:39:06;15.70;99.90
4985;DHT22;2509;49.902;8.600;2023-10-09T05:42:22;15.70;99.90
4985;DHT22;2509;49.902;8.600;2023-10-09T05:45:29;15.70;99.90
4985;DHT22;2509;49.902;8.600;2023-10-09T05:48:59;15.70;99.90
4985;DHT22;2509;49.902;8.600;2023-10-09T05:52:11;15.80;99.90
4985;DHT22;2509;49.902;8.600;2023-10-09T05:55:27;15.80;99.90
4985;DHT22;2509;49.902;8.600;2023-10-09T05:58:46;15.80;99.90
4985;DHT22;2509;49.902;8.600;2023-10-09T06:02:06;15.80;99.90
4985;DHT22;2509;49.902;8.600;2023-10-09T06:05:33;15.90;99.90
4985;DHT22;2509;49.902;8.600;2023-10-09T06:09:04;15.90;99.90
4985;DHT22;2509;49.902;8.600;2023-10-09T06:12:26;15.90;99.90
4985;DHT22;2509;49.902;8.600;2023-10-09T06:15:57;16.00;99.90
4985;DHT22;2509;49.902;8.600;2023-10-09T06:19:14;16.00;99.90
4985;DHT22;2509;49.902;8.600;2023-10-09T06:22:26;16.00;99.90
4985;DHT22;2509;49.902;8.600;2023-10-09T06:25:47;16.00;99.90
4985;DHT22;2509;49.902;8.600;2023-10-09T06:28:52;16.00;99.90
4985;DHT22;2509;49.902;8.600;2023-10-09T06:32:09;16.10;99.90
4985;DHT22;2509;49.902;8.600;2023-10-09T06:35:37;16.10;99.90
4985;DHT22;2509;49.902;8.600;2023-10-09T06:38:40;16.20;99.90
4985;DHT22;2509;49.902;8.600;2023-10-09T06:42:13;16.20;99.90
4985;DHT22;2509;49.902;8.600;2023-10-09T06:45:31;16.30;99.90
4985;DHT22;2509;49.902;8.600;2023-10-09T06:48:44;16.30;99.90
4985;DHT22;2509;49.902;8.600;2023-10-09T06:51:56;16.30;99.90
4985;DHT22;2509;49.902;8.600;2023-10-09T06:55:14;16.40;99.90
4985;DHT22;2509;49.902;8.600;2023-10-09T06:58:21;16.40;99.90
4985;DHT22;2509;49.902;8.600;2023-10-09T07:01:28;16.40;99.90
4985;DHT22;2509;49.902;8.600;2023-10-09T07:04:43;16.40;99.90
4985;DHT22;2509;49.902;8.600;2023-10-09T07:07:55;16.50;99.90
4985;DHT22;2509;49.902;8.600;2023-10-09T07:10:56;16.50;99.90
4985;DHT22;2509;49.902;8.600;2023-10-09T07:14:20;16.50;99.90
4985;DHT22;2509;49.902;8.600;2023-10-09T07:17:54;16.50;99.90
4985;DHT22;2509;49.902;8.600;2023-10-09T07:20:55;16.60;99.90
4985;DHT22;2509;49.902;8.600;2023-10-09T07:24:12;16.60;99.90
4985;DHT22;2509;49.902;8.600;2023-10-09T07:27:17;16.60;99.90
4985;DHT22;2509;49.902;8.600;2023-10-09T07:30:41;16.60;99.90
4985;DHT22;2509;49.902;8.600;2023-10-09T07:33:42;16.70;99.90
4985;DHT22;2509;49.902;8.600;2023-10-09T07:36:57;16.70;99.90
4985;DHT22;2509;49.902;8.600;2023-10-09T07:40:05;16.70;99.90
4985;DHT22;2509;49.902;8.600;2023-10-09T07:43:08;16.80;99.90
4985;DHT22;2509;49.902;8.600;2023-10-09T07:46:18;16.80;99.90
4985;DHT22;2509;49.902;8.600;2023-10-09T07:49:33;16.90;99.90
4985;DHT22;2509;49.902;8.600;2023-10-09T07:52:38;17.00;99.90
4985;DHT22;2509;49.902;8.600;2023-10-09T07:55:44;17.00;99.90
4985;DHT22;2509;49.902;8.600;2023-10-09T07:58:54;17.10;99.90
4985;DHT22;2509;49.902;8.600;2023-10-09T08:02:02;17.10;99.90
4985;DHT22;2509;49.902;8.600;2023-10-09T08:05:04;17.20;99.90
4985;DHT22;2509;49.902;8.600;2023-10-09T08:08:07;17.20;99.90
4985;DHT22;2509;49.902;8.600;2023-10-09T08:11:40;17.30;99.90
4985;DHT22;2509;49.902;8.600;2023-10-09T08:14:59;17.30;99.90
4985;DHT22;2509;49.902;8.600;2023-10-09T08:18:14;17.40;99.90
4985;DHT22;2509;49.902;8.600;2023-10-09T08:21:28;17.50;99.90
4985;DHT22;2509;49.902;8.600;2023-10-09T08:24:44;17.60;99.90
4985;DHT22;2509;49.902;8.600;2023-10-09T08:27:54;17.70;99.90
4985;DHT22;2509;49.902;8.600;2023-10-09T08:30:57;17.80;99.90
4985;DHT22;2509;49.902;8.600;2023-10-09T08:34:06;17.80;99.90
4985;DHT22;2509;49.902;8.600;2023-10-09T08:37:10;17.90;99.90
4985;DHT22;2509;49.902;8.600;2023-10-09T08:40:13;17.90;99.90
4985;DHT22;2509;49.902;8.600;2023-10-09T08:43:20;18.00;99.90
4985;DHT22;2509;49.902;8.600;2023-10-09T08:46:23;17.90;99.90
4985;DHT22;2509;49.902;8.600;2023-10-09T08:49:28;17.80;99.90
4985;DHT22;2509;49.902;8.600;2023-10-09T08:52:34;17.80;99.90
4985;DHT22;2509;49.902;8.600;2023-10-09T08:55:38;17.80;99.90
4985;DHT22;2509;49.902;8.600;2023-10-09T08:58:40;17.80;99.90
4985;DHT22;2509;49.902;8.600;2023-10-09T09:01:42;17.80;99.90
4985;DHT22;2509;49.902;8.600;2023-10-09T09:04:45;17.80;99.90
4985;DHT22;2509;49.902;8.600;2023-10-09T09:07:51;17.80;99.90
4985;DHT22;2509;49.902;8.600;2023-10-09T09:10:57;17.80;99.90
4985;DHT22;2509;49.902;8.600;2023-10-09T09:14:05;17.90;99.90
4985;DHT22;2509;49.902;8.600;2023-10-09T09:17:22;17.90;99.90
4985;DHT22;2509;49.902;8.600;2023-10-09T09:20:32;17.90;99.90
4985;DHT22;2509;49.902;8.600;2023-10-09T09:23:43;17.90;99.90
4985;DHT22;2509;49.902;8.600;2023-10-09T09:26:56;17.90;99.90
4985;DHT22;2509;49.902;8.600;2023-10-09T09:30:00;18.00;99.90
4985;DHT22;2509;49.902;8.600;2023-10-09T09:33:18;18.00;99.90
4985;DHT22;2509;49.902;8.600;2023-10-09T09:36:33;18.00;99.90
4985;DHT22;2509;49.902;8.600;2023-10-09T09:39:35;18.00;99.90
4985;DHT22;2509;49.902;8.600;2023-10-09T09:42:37;18.10;99.90
4985;DHT22;2509;49.902;8.600;2023-10-09T09:45:45;18.10;99.90
4985;DHT22;2509;49.902;8.600;2023-10-09T09:48:48;18.10;99.90
4985;DHT22;2509;49.902;8.600;2023-10-09T09:51:51;18.20;99.90
4985;DHT22;2509;49.902;8.600;2023-10-09T09:54:52;18.20;99.90
4985;DHT22;2509;49.902;8.600;2023-10-09T09:57:54;18.20;99.90
4985;DHT22;2509;49.902;8.600;2023-10-09T10:01:01;18.30;99.90
4985;DHT22;2509;49.902;8.600;2023-10-09T10:04:11;18.40;99.90
4985;DHT22;2509;49.902;8.600;2023-10-09T10:07:15;18.40;99.90
4985;DHT22;2509;49.902;8.600;2023-10-09T10:10:34;18.50;99.90
4985;DHT22;2509;49.902;8.600;2023-10-09T10:13:55;18.50;99.90
4985;DHT22;2509;49.902;8.600;2023-10-09T10:17:06;18.60;99.90
4985;DHT22;2509;49.902;8.600;2023-10-09T10:20:17;18.60;99.90
4985;DHT22;2509;49.902;8.600;2023-10-09T10:23:33;18.60;99.90
4985;DHT22;2509;49.902;8.600;2023-10-09T10:26:37;18.50;99.90
4985;DHT22;2509;49.902;8.600;2023-10-09T10:29:40;18.60;99.90
4985;DHT22;2509;49.902;8.600;2023-10-09T10:32:55;18.60;99.90
4985;DHT22;2509;49.902;8.600;2023-10-09T10:35:58;18.70;99.90
4985;DHT22;2509;49.902;8.600;2023-10-09T10:39:08;18.80;99.90
4985;DHT22;2509;49.902;8.600;2023-10-09T10:42:14;18.80;99.90
4985;DHT22;2509;49.902;8.600;2023-10-09T10:45:35;18.80;99.90
4985;DHT22;2509;49.902;8.600;2023-10-09T10:48:44;18.90;99.90
4985;DHT22;2509;49.902;8.600;2023-10-09T10:51:47;19.00;99.90
4985;DHT22;2509;49.902;8.600;2023-10-09T10:54:51;19.20;99.90
4985;DHT22;2509;49.902;8.600;2023-10-09T10:58:17;19.30;99.90
4985;DHT22;2509;49.902;8.600;2023-10-09T11:01:24;19.50;99.90
4985;DHT22;2509;49.902;8.600;2023-10-09T11:04:28;19.60;99.90
4985;DHT22;2509;49.902;8.600;2023-10-09T11:07:39;19.70;99.90
4985;DHT22;2509;49.902;8.600;2023-10-09T11:10:42;19.90;99.90
4985;DHT22;2509;49.902;8.600;2023-10-09T11:13:51;20.00;99.90
4985;DHT22;2509;49.902;8.600;2023-10-09T11:16:56;20.40;99.90
4985;DHT22;2509;49.902;8.600;2023-10-09T11:19:59;20.80;99.90
4985;DHT22;2509;49.902;8.600;2023-10-09T11:23:22;21.10;99.90
4985;DHT22;2509;49.902;8.600;2023-10-09T11:26:31;21.40;99.90
4985;DHT22;2509;49.902;8.600;2023-10-09T11:29:47;21.60;99.90
4985;DHT22;2509;49.902;8.600;2023-10-09T11:33:04;21.80;99.90
4985;DHT22;2509;49.902;8.600;2023-10-09T11:36:07;22.10;99.90
4985;DHT22;2509;49.902;8.600;2023-10-09T11:39:24;22.80;99.90
4985;DHT22;2509;49.902;8.600;2023-10-09T11:42:34;23.30;99.90
4985;DHT22;2509;49.902;8.600;2023-10-09T11:45:49;23.70;99.90
4985;DHT22;2509;49.902;8.600;2023-10-09T11:49:03;24.10;99.90
4985;DHT22;2509;49.902;8.600;2023-10-09T11:52:16;24.70;99.90
4985;DHT22;2509;49.902;8.600;2023-10-09T11:55:38;24.70;99.90
4985;DHT22;2509;49.902;8.600;2023-10-09T11:58:41;24.50;99.90
4985;DHT22;2509;49.902;8.600;2023-10-09T12:01:46;24.30;99.90
4985;DHT22;2509;49.902;8.600;2023-10-09T12:04:53;24.10;99.90
4985;DHT22;2509;49.902;8.600;2023-10-09T12:07:56;24.20;99.90
4985;DHT22;2509;49.902;8.600;2023-10-09T12:11:00;24.70;99.90
4985;DHT22;2509;49.902;8.600;2023-10-09T12:14:10;25.10;99.90
4985;DHT22;2509;49.902;8.600;2023-10-09T12:17:11;25.10;99.90
4985;DHT22;2509;49.902;8.600;2023-10-09T12:20:14;24.80;99.90
4985;DHT22;2509;49.902;8.600;2023-10-09T12:23:31;24.30;99.90
4985;DHT22;2509;49.902;8.600;2023-10-09T12:26:36;24.00;99.90
4985;DHT22;2509;49.902;8.600;2023-10-09T12:29:41;24.10;99.90
4985;DHT22;2509;49.902;8.600;2023-10-09T12:32:45;24.00;99.90
4985;DHT22;2509;49.902;8.600;2023-10-09T12:35:47;23.80;99.90
4985;DHT22;2509;49.902;8.600;2023-10-09T12:38:49;23.70;99.90
4985;DHT22;2509;49.902;8.600;2023-10-09T12:41:54;23.70;99.90
4985;DHT22;2509;49.902;8.600;2023-10-09T12:45:00;23.60;99.90
4985;DHT22;2509;49.902;8.600;2023-10-09T12:48:08;23.50;99.90
4985;DHT22;2509;49.902;8.600;2023-10-09T12:51:10;23.40;99.90
4985;DHT22;2509;49.902;8.600;2023-10-09T12:54:16;23.20;99.90
4985;DHT22;2509;49.902;8.600;2023-10-09T12:57:19;23.00;99.90
4985;DHT22;2509;49.902;8.600;2023-10-09T13:00:22;22.90;99.90
4985;DHT22;2509;49.902;8.600;2023-10-09T13:03:26;22.80;99.90
4985;DHT22;2509;49.902;8.600;2023-10-09T13:06:33;22.70;99.90
4985;DHT22;2509;49.902;8.600;2023-10-09T13:09:44;22.80;99.90
4985;DHT22;2509;49.902;8.600;2023-10-09T13:13:06;22.70;99.90
4985;DHT22;2509;49.902;8.600;2023-10-09T13:16:10;22.80;99.90
4985;DHT22;2509;49.902;8.600;2023-10-09T13:19:14;22.80;99.90
4985;DHT22;2509;49.902;8.600;2023-10-09T13:22:16;22.80;99.90
4985;DHT22;2509;49.902;8.600;2023-10-09T13:25:18;22.80;99.90
4985;DHT22;2509;49.902;8.600;2023-10-09T13:28:25;22.90;99.90
4985;DHT22;2509;49.902;8.600;2023-10-09T13:31:29;23.00;99.90
4985;DHT22;2509;49.902;8.600;2023-10-09T13:34:32;23.10;99.90
4985;DHT22;2509;49.902;8.600;2023-10-09T13:37:34;23.10;99.90
4985;DHT22;2509;49.902;8.600;2023-10-09T13:40:37;23.20;99.90
4985;DHT22;2509;49.902;8.600;2023-10-09T13:43:39;23.20;99.90
4985;DHT22;2509;49.902;8.600;2023-10-09T13:46:44;23.20;99.90
4985;DHT22;2509;49.902;8.600;2023-10-09T13:49:46;23.30;99.90
4985;DHT22;2509;49.902;8.600;2023-10-09T13:52:51;23.30;99.90
4985;DHT22;2509;49.902;8.600;2023-10-09T13:55:54;23.40;99.90
4985;DHT22;2509;49.902;8.600;2023-10-09T13:58:56;23.40;99.90
4985;DHT22;2509;49.902;8.600;2023-10-09T14:01:59;23.40;99.90
4985;DHT22;2509;49.902;8.600;2023-10-09T14:05:03;23.50;99.90
4985;DHT22;2509;49.902;8.600;2023-10-09T14:08:08;23.50;99.90
4985;DHT22;2509;49.902;8.600;2023-10-09T14:11:19;23.50;99.90
4985;DHT22;2509;49.902;8.600;2023-10-09T14:14:39;23.50;99.90
4985;DHT22;2509;49.902;8.600;2023-10-09T14:17:48;23.50;99.90
4985;DHT22;2509;49.902;8.600;2023-10-09T14:24:33;23.40;99.90
4985;DHT22;2509;49.902;8.600;2023-10-09T14:28:00;23.40;99.90
4985;DHT22;2509;49.902;8.600;2023-10-09T14:35:51;23.40;99.90
4985;DHT22;2509;49.902;8.600;2023-10-09T14:38:56;23.30;99.90
4985;DHT22;2509;49.902;8.600;2023-10-09T14:42:13;23.20;99.90
4985;DHT22;2509;49.902;8.600;2023-10-09T14:45:53;23.30;99.90
4985;DHT22;2509;49.902;8.600;2023-10-09T14:53:00;23.30;99.90
4985;DHT22;2509;49.902;8.600;2023-10-09T14:56:05;23.30;99.90
4985;DHT22;2509;49.902;8.600;2023-10-09T14:59:09;23.20;99.90
4985;DHT22;2509;49.902;8.600;2023-10-09T15:02:11;23.20;99.90
4985;DHT22;2509;49.902;8.600;2023-10-09T15:05:13;23.20;99.90
4985;DHT22;2509;49.902;8.600;2023-10-09T15:08:17;23.20;99.90
4985;DHT22;2509;49.902;8.600;2023-10-09T15:11:21;23.20;99.90
4985;DHT22;2509;49.902;8.600;2023-10-09T15:14:24;23.10;99.90
4985;DHT22;2509;49.902;8.600;2023-10-09T15:17:25;23.10;99.90
4985;DHT22;2509;49.902;8.600;2023-10-09T15:20:27;23.10;99.90
4985;DHT22;2509;49.902;8.600;2023-10-09T15:23:30;23.00;99.90
4985;DHT22;2509;49.902;8.600;2023-10-09T15:26:32;23.00;99.90
4985;DHT22;2509;49.902;8.600;2023-10-09T15:29:34;23.00;99.90
4985;DHT22;2509;49.902;8.600;2023-10-09T15:32:43;23.00;99.90
4985;DHT22;2509;49.902;8.600;2023-10-09T15:35:45;22.90;99.90
4985;DHT22;2509;49.902;8.600;2023-10-09T15:38:48;22.90;99.90
4985;DHT22;2509;49.902;8.600;2023-10-09T15:41:50;22.80;99.90
4985;DHT22;2509;49.902;8.600;2023-10-09T15:44:52;22.80;99.90
4985;DHT22;2509;49.902;8.600;2023-10-09T15:47:55;22.70;99.90
4985;DHT22;2509;49.902;8.600;2023-10-09T15:50:57;22.70;99.90
4985;DHT22;2509;49.902;8.600;2023-10-09T15:54:02;22.70;99.90
4985;DHT22;2509;49.902;8.600;2023-10-09T15:57:03;22.60;99.90
4985;DHT22;2509;49.902;8.600;2023-10-09T16:00:07;22.60;99.90
4985;DHT22;2509;49.902;8.600;2023-10-09T16:03:14;22.60;99.90
4985;DHT22;2509;49.902;8.600;2023-10-09T16:06:16;22.50;99.90
4985;DHT22;2509;49.902;8.600;2023-10-09T16:09:20;22.40;99.90
4985;DHT22;2509;49.902;8.600;2023-10-09T16:12:22;22.30;99.90
4985;DHT22;2509;49.902;8.600;2023-10-09T16:15:26;22.30;99.90
4985;DHT22;2509;49.902;8.600;2023-10-09T16:18:28;22.20;99.90
4985;DHT22;2509;49.902;8.600;2023-10-09T16:21:30;22.10;99.90
4985;DHT22;2509;49.902;8.600;2023-10-09T16:24:33;21.90;99.90
4985;DHT22;2509;49.902;8.600;2023-10-09T16:27:36;21.80;99.90
4985;DHT22;2509;49.902;8.600;2023-10-09T16:30:40;21.70;99.90
4985;DHT22;2509;49.902;8.600;2023-10-09T16:33:42;21.50;99.90
4985;DHT22;2509;49.902;8.600;2023-10-09T16:36:43;21.40;99.90
4985;DHT22;2509;49.902;8.600;2023-10-09T16:39:47;21.30;99.90
4985;DHT22;2509;49.902;8.600;2023-10-09T16:42:49;21.20;99.90
4985;DHT22;2509;49.902;8.600;2023-10-09T16:45:53;21.10;99.90
4985;DHT22;2509;49.902;8.600;2023-10-09T16:48:57;21.00;99.90
4985;DHT22;2509;49.902;8.600;2023-10-09T16:52:04;20.90;99.90
4985;DHT22;2509;49.902;8.600;2023-10-09T16:55:13;20.80;99.90
4985;DHT22;2509;49.902;8.600;2023-10-09T16:58:15;20.80;99.90
4985;DHT22;2509;49.902;8.600;2023-10-09T17:01:17;20.70;99.90
4985;DHT22;2509;49.902;8.600;2023-10-09T17:04:21;20.60;99.90
4985;DHT22;2509;49.902;8.600;2023-10-09T17:07:23;20.50;99.90
4985;DHT22;2509;49.902;8.600;2023-10-09T17:10:32;20.50;99.90
4985;DHT22;2509;49.902;8.600;2023-10-09T17:13:35;20.40;99.90
4985;DHT22;2509;49.902;8.600;2023-10-09T17:16:38;20.30;99.90
4985;DHT22;2509;49.902;8.600;2023-10-09T17:19:41;20.20;99.90
4985;DHT22;2509;49.902;8.600;2023-10-09T17:22:44;20.20;99.90
4985;DHT22;2509;49.902;8.600;2023-10-09T17:25:49;20.10;99.90
4985;DHT22;2509;49.902;8.600;2023-10-09T17:28:58;20.00;99.90
4985;DHT22;2509;49.902;8.600;2023-10-09T17:32:00;19.90;99.90
4985;DHT22;2509;49.902;8.600;2023-10-09T17:35:03;19.90;99.90
4985;DHT22;2509;49.902;8.600;2023-10-09T17:38:08;19.80;99.90
4985;DHT22;2509;49.902;8.600;2023-10-09T17:41:11;19.80;99.90
4985;DHT22;2509;49.902;8.600;2023-10-09T17:44:13;19.70;99.90
4985;DHT22;2509;49.902;8.600;2023-10-09T17:47:15;19.70;99.90
4985;DHT22;2509;49.902;8.600;2023-10-09T17:50:18;19.60;99.90
4985;DHT22;2509;49.902;8.600;2023-10-09T17:53:22;19.60;99.90
4985;DHT22;2509;49.902;8.600;2023-10-09T17:56:25;19.50;99.90
4985;DHT22;2509;49.902;8.600;2023-10-09T17:59:27;19.50;99.90
4985;DHT22;2509;49.902;8.600;2023-10-09T18:02:29;19.40;99.90
4985;DHT22;2509;49.902;8.600;2023-10-09T18:05:31;19.30;99.90
4985;DHT22;2509;49.902;8.600;2023-10-09T18:08:33;19.20;99.90
4985;DHT22;2509;49.902;8.600;2023-10-09T18:11:38;19.20;99.90
4985;DHT22;2509;49.902;8.600;2023-10-09T18:14:40;19.10;99.90
4985;DHT22;2509;49.902;8.600;2023-10-09T18:17:41;19.00;99.90
4985;DHT22;2509;49.902;8.600;2023-10-09T18:20:44;18.90;99.90
4985;DHT22;2509;49.902;8.600;2023-10-09T18:23:46;18.80;99.90
4985;DHT22;2509;49.902;8.600;2023-10-09T18:26:49;18.70;99.90
4985;DHT22;2509;49.902;8.600;2023-10-09T18:29:51;18.70;99.90
4985;DHT22;2509;49.902;8.600;2023-10-09T18:32:53;18.60;99.90
4985;DHT22;2509;49.902;8.600;2023-10-09T18:35:57;18.60;99.90
4985;DHT22;2509;49.902;8.600;2023-10-09T18:39:02;18.60;99.90
4985;DHT22;2509;49.902;8.600;2023-10-09T18:42:05;18.60;99.90
4985;DHT22;2509;49.902;8.600;2023-10-09T18:45:08;18.60;99.90
4985;DHT22;2509;49.902;8.600;2023-10-09T18:48:12;18.50;99.90
4985;DHT22;2509;49.902;8.600;2023-10-09T18:51:18;18.50;99.90
4985;DHT22;2509;49.902;8.600;2023-10-09T18:54:20;18.50;99.90
4985;DHT22;2509;49.902;8.600;2023-10-09T18:57:23;18.40;99.90
4985;DHT22;2509;49.902;8.600;2023-10-09T19:00:25;18.40;99.90
4985;DHT22;2509;49.902;8.600;2023-10-09T19:03:31;18.40;99.90
4985;DHT22;2509;49.902;8.600;2023-10-09T19:06:34;18.40;99.90
4985;DHT22;2509;49.902;8.600;2023-10-09T19:09:36;18.40;99.90
4985;DHT22;2509;49.902;8.600;2023-10-09T19:12:40;18.30;99.90
4985;DHT22;2509;49.902;8.600;2023-10-09T19:15:49;18.30;99.90
4985;DHT22;2509;49.902;8.600;2023-10-09T19:18:51;18.30;99.90
4985;DHT22;2509;49.902;8.600;2023-10-09T19:21:54;18.30;99.90
4985;DHT22;2509;49.902;8.600;2023-10-09T19:24:55;18.30;99.90
4985;DHT22;2509;49.902;8.600;2023-10-09T19:27:58;18.30;99.90
4985;DHT22;2509;49.902;8.600;2023-10-09T19:31:04;18.20;99.90
4985;DHT22;2509;49.902;8.600;2023-10-09T19:34:06;18.20;99.90
4985;DHT22;2509;49.902;8.600;2023-10-09T19:37:09;18.20;99.90
4985;DHT22;2509;49.902;8.600;2023-10-09T19:40:12;18.10;99.90
4985;DHT22;2509;49.902;8.600;2023-10-09T19:43:15;18.10;99.90
4985;DHT22;2509;49.902;8.600;2023-10-09T19:46:17;18.10;99.90
4985;DHT22;2509;49.902;8.600;2023-10-09T19:49:19;18.10;99.90
4985;DHT22;2509;49.902;8.600;2023-10-09T19:52:21;18.10;99.90
4985;DHT22;2509;49.902;8.600;2023-10-09T19:55:23;18.00;99.90
4985;DHT22;2509;49.902;8.600;2023-10-09T19:58:26;18.00;99.90
4985;DHT22;2509;49.902;8.600;2023-10-09T20:01:28;18.00;99.90
4985;DHT22;2509;49.902;8.600;2023-10-09T20:04:30;18.00;99.90
4985;DHT22;2509;49.902;8.600;2023-10-09T20:07:32;17.90;99.90
4985;DHT22;2509;49.902;8.600;2023-10-09T20:10:36;17.90;99.90
4985;DHT22;2509;49.902;8.600;2023-10-09T20:13:40;17.90;99.90
4985;DHT22;2509;49.902;8.600;2023-10-09T20:16:42;17.80;99.90
4985;DHT22;2509;49.902;8.600;2023-10-09T20:19:45;17.80;99.90
4985;DHT22;2509;49.902;8.600;2023-10-09T20:22:51;17.70;99.90
4985;DHT22;2509;49.902;8.600;2023-10-09T20:25:59;17.60;99.90
4985;DHT22;2509;49.902;8.600;2023-10-09T20:29:03;17.50;99.90
4985;DHT22;2509;49.902;8.600;2023-10-09T20:32:05;17.50;99.90
4985;DHT22;2509;49.902;8.600;2023-10-09T20:35:08;17.40;99.90